Terminal Aerodrome Forecast
Issued by NWS

Home | Current Version | Previous Version | Text Only | Print | Product List | Glossary On
Versions: 1 2 3 4 5 6 7 8 9 10 11 12 13 14 15 16 17 18 19 20 21 22 23 24 25 26 27 28 29 30 31 32 33 34 35 36
000
FTUS41 KBOX 040838 AAA
TAFFMH
TAF AMD
KFMH 040838Z 0409/0506 00000KT P6SM FEW180 OVC210
     FM041500 14006KT P6SM BKN110
     FM042000 10007KT P6SM VCSH OVC090
     FM042300 06006KT P6SM VCSH OVC080
     FM050100 04005KT P6SM OVC080=

USA.gov is the U.S. government's official web portal to all federal, state and local government web resources and services.